createdAt,value
2018-05-31T00:00:10.925Z,18.74
2018-05-31T00:03:14.262Z,18.72
2018-05-31T00:06:22.553Z,18.72
2018-05-31T00:09:25.901Z,18.67
2018-05-31T00:12:29.238Z,18.68
2018-05-31T00:15:33.291Z,18.67
2018-05-31T00:18:37.479Z,18.64
2018-05-31T00:21:40.847Z,18.66
2018-05-31T00:24:44.204Z,18.62
2018-05-31T00:27:47.547Z,18.60
2018-05-31T00:30:50.894Z,18.52
2018-05-31T00:33:54.959Z,18.52
2018-05-31T00:36:58.308Z,18.52
2018-05-31T00:40:01.665Z,18.56
2018-05-31T00:43:05.057Z,18.56
2018-05-31T00:46:08.409Z,18.53
2018-05-31T00:49:11.771Z,18.56
2018-05-31T00:52:16.237Z,18.60
2018-05-31T00:55:37.333Z,18.52
2018-05-31T00:58:40.679Z,18.47
2018-05-31T01:01:44.829Z,18.45
2018-05-31T01:04:48.975Z,18.38
2018-05-31T01:07:52.320Z,18.30
2018-05-31T01:10:56.591Z,18.31
2018-05-31T01:13:59.934Z,18.33
2018-05-31T01:17:03.338Z,18.28
2018-05-31T01:20:06.735Z,18.26
2018-05-31T01:23:10.072Z,18.21
2018-05-31T01:26:13.408Z,18.27
2018-05-31T01:29:16.743Z,18.19
2018-05-31T01:32:20.923Z,18.12
2018-05-31T01:35:24.274Z,18.08
2018-05-31T01:38:33.262Z,18.03
2018-05-31T01:41:36.605Z,18.09
2018-05-31T01:44:39.953Z,18.11
2018-05-31T01:47:43.363Z,18.04
2018-05-31T01:50:47.474Z,18.11
2018-05-31T01:53:52.386Z,18.08
2018-05-31T01:56:55.699Z,18.03
2018-05-31T01:59:59.924Z,18.04
2018-05-31T02:03:04.021Z,18.03
2018-05-31T02:06:07.375Z,18.05
2018-05-31T02:09:10.856Z,18.01
2018-05-31T02:12:14.192Z,17.97
2018-05-31T02:15:18.304Z,17.95
2018-05-31T02:18:21.611Z,17.98
2018-05-31T02:21:24.985Z,17.90
2018-05-31T02:24:28.371Z,17.89
2018-05-31T02:27:31.729Z,17.86
2018-05-31T02:30:35.938Z,17.89
2018-05-31T02:33:39.283Z,17.86
2018-05-31T02:36:42.620Z,17.83
2018-05-31T02:39:46.119Z,17.83
2018-05-31T02:42:49.467Z,17.81
2018-05-31T02:45:52.903Z,17.80
2018-05-31T02:48:56.240Z,17.81
2018-05-31T02:52:00.314Z,17.85
2018-05-31T02:55:03.763Z,17.87
2018-05-31T02:58:07.137Z,17.84
2018-05-31T03:01:11.246Z,17.85
2018-05-31T03:04:14.710Z,17.87
2018-05-31T03:07:18.138Z,17.79
2018-05-31T03:10:21.718Z,17.83
2018-05-31T03:13:25.040Z,17.80
2018-05-31T03:16:28.424Z,17.78
2018-05-31T03:19:31.828Z,17.83
2018-05-31T03:22:35.133Z,17.90
2018-05-31T03:25:39.263Z,18.03
2018-05-31T03:28:43.446Z,18.13
2018-05-31T03:31:46.801Z,18.16
2018-05-31T03:34:50.808Z,18.26
2018-05-31T03:37:54.142Z,18.31
2018-05-31T03:40:57.449Z,18.46
2018-05-31T03:44:00.802Z,18.48
2018-05-31T03:47:04.150Z,18.57
2018-05-31T03:50:07.501Z,18.62
2018-05-31T03:53:10.944Z,18.73
2018-05-31T03:56:14.344Z,18.79
2018-05-31T03:59:17.665Z,18.71
2018-05-31T04:02:21.027Z,18.66
2018-05-31T04:05:24.375Z,18.54
2018-05-31T04:08:27.695Z,18.43
2018-05-31T04:11:31.046Z,18.36
2018-05-31T04:14:35.141Z,18.35
2018-05-31T04:17:38.483Z,18.29
2018-05-31T04:20:41.837Z,18.32
2018-05-31T04:23:45.179Z,18.34
2018-05-31T04:26:48.517Z,18.35
2018-05-31T04:29:51.849Z,18.31
2018-05-31T04:32:55.184Z,18.36
2018-05-31T04:35:58.503Z,18.41
2018-05-31T04:39:01.852Z,18.41
2018-05-31T04:42:05.188Z,18.41
2018-05-31T04:45:08.518Z,18.42
2018-05-31T04:48:12.649Z,18.47
2018-05-31T04:51:15.989Z,18.53
2018-05-31T04:54:19.330Z,18.65
2018-05-31T04:57:23.505Z,18.69
2018-05-31T05:00:26.889Z,18.77
2018-05-31T05:03:30.218Z,18.78
2018-05-31T05:06:33.576Z,18.72
2018-05-31T05:09:36.893Z,18.76
2018-05-31T05:12:40.254Z,18.78
2018-05-31T05:15:43.599Z,18.76
2018-05-31T05:18:46.989Z,18.75
2018-05-31T05:21:51.689Z,18.78
2018-05-31T05:24:55.012Z,18.81
2018-05-31T05:27:58.363Z,18.80
2018-05-31T05:31:01.732Z,18.88
2018-05-31T05:34:05.847Z,18.96
2018-05-31T05:37:09.948Z,18.99
2018-05-31T05:40:13.273Z,19.02
2018-05-31T05:43:16.598Z,19.08
2018-05-31T05:46:19.959Z,19.10
2018-05-31T05:49:23.290Z,19.15
2018-05-31T05:52:26.647Z,19.21
2018-05-31T05:55:31.709Z,19.34
2018-05-31T05:58:36.379Z,19.36
2018-05-31T06:01:39.777Z,19.40
2018-05-31T06:04:43.194Z,19.47
2018-05-31T06:07:47.311Z,19.50
2018-05-31T06:10:51.472Z,19.49
2018-05-31T06:13:54.832Z,19.49
2018-05-31T06:16:58.964Z,19.56
2018-05-31T06:20:02.371Z,19.63
2018-05-31T06:23:05.693Z,19.51
2018-05-31T06:26:09.115Z,19.61
2018-05-31T06:29:12.466Z,19.72
2018-05-31T06:32:15.828Z,19.87
2018-05-31T06:35:19.948Z,19.95
2018-05-31T06:38:24.907Z,20.00
2018-05-31T06:41:28.288Z,20.02
2018-05-31T06:44:32.365Z,19.98
2018-05-31T06:47:35.715Z,20.00
2018-05-31T06:50:39.056Z,20.04
2018-05-31T06:53:42.399Z,20.16
2018-05-31T06:56:45.787Z,20.31
2018-05-31T06:59:49.898Z,20.42
2018-05-31T07:02:54.074Z,20.51
2018-05-31T07:05:57.475Z,20.61
2018-05-31T07:09:00.808Z,20.69
2018-05-31T07:12:04.914Z,20.63
2018-05-31T07:15:09.009Z,20.68
2018-05-31T07:18:13.141Z,20.71
2018-05-31T07:21:16.640Z,20.67
2018-05-31T07:24:19.981Z,20.50
2018-05-31T07:27:23.303Z,20.59
2018-05-31T07:30:26.623Z,20.60
2018-05-31T07:33:30.824Z,20.55
2018-05-31T07:36:34.161Z,20.51
2018-05-31T07:39:37.523Z,20.68
2018-05-31T07:42:40.870Z,20.70
2018-05-31T07:45:44.142Z,20.71
2018-05-31T07:48:47.513Z,20.78
2018-05-31T07:51:50.831Z,20.76
2018-05-31T07:54:54.938Z,20.69
2018-05-31T07:57:59.315Z,20.65
2018-05-31T08:01:02.671Z,20.62
2018-05-31T08:04:06.759Z,20.56
2018-05-31T08:07:10.107Z,20.72
2018-05-31T08:10:13.434Z,20.69
2018-05-31T08:13:16.791Z,20.71
2018-05-31T08:16:20.101Z,20.79
2018-05-31T08:19:23.488Z,20.82
2018-05-31T08:22:26.820Z,20.81
2018-05-31T08:25:30.193Z,20.75
2018-05-31T08:28:33.478Z,20.78
2018-05-31T08:31:37.300Z,20.94
2018-05-31T08:34:41.350Z,20.90
2018-05-31T08:37:44.711Z,20.92
2018-05-31T08:40:48.042Z,20.88
2018-05-31T08:43:51.395Z,21.09
2018-05-31T08:46:54.729Z,21.05
2018-05-31T08:49:58.086Z,20.84
2018-05-31T08:53:01.418Z,20.69
2018-05-31T08:56:05.150Z,20.65
2018-05-31T08:59:08.509Z,20.86
2018-05-31T09:02:11.878Z,21.23
2018-05-31T09:05:15.274Z,21.21
2018-05-31T09:08:18.637Z,21.14
2018-05-31T09:11:22.751Z,21.09
2018-05-31T09:14:27.057Z,21.47
2018-05-31T09:17:30.354Z,21.77
2018-05-31T09:20:34.518Z,21.94
2018-05-31T09:23:37.850Z,21.87
2018-05-31T09:26:41.196Z,21.65
2018-05-31T09:29:44.540Z,21.73
2018-05-31T09:32:47.933Z,21.79
2018-05-31T09:35:51.288Z,21.77
2018-05-31T09:38:54.618Z,21.91
2018-05-31T09:41:57.954Z,22.09
2018-05-31T09:45:02.136Z,22.19
2018-05-31T09:48:05.436Z,22.44
2018-05-31T09:51:08.796Z,22.57
2018-05-31T09:54:12.118Z,22.42
2018-05-31T09:57:15.475Z,22.18
2018-05-31T10:00:19.540Z,21.80
2018-05-31T10:03:22.889Z,21.64
2018-05-31T10:06:26.238Z,21.76
2018-05-31T10:09:29.633Z,21.98
2018-05-31T10:12:32.955Z,22.17
2018-05-31T10:15:37.109Z,22.14
2018-05-31T10:18:40.429Z,22.18
2018-05-31T10:21:43.790Z,22.20
2018-05-31T10:24:47.117Z,22.31
2018-05-31T10:27:50.460Z,22.23
2018-05-31T10:30:54.549Z,22.20
2018-05-31T10:33:57.925Z,22.41
2018-05-31T10:37:01.256Z,22.59
2018-05-31T10:40:04.580Z,22.70
2018-05-31T10:43:07.913Z,22.67
2018-05-31T10:46:11.253Z,22.64
2018-05-31T10:49:15.342Z,22.72
2018-05-31T10:52:18.662Z,22.89
2018-05-31T10:55:22.013Z,22.85
2018-05-31T10:58:25.362Z,22.85
2018-05-31T11:01:29.437Z,23.03
2018-05-31T11:04:32.754Z,23.28
2018-05-31T11:07:36.857Z,23.36
2018-05-31T11:10:40.278Z,23.49
2018-05-31T11:13:44.365Z,23.62
2018-05-31T11:16:48.481Z,23.80
2018-05-31T11:19:51.804Z,23.83
2018-05-31T11:22:55.937Z,23.75
2018-05-31T11:25:59.257Z,23.69
2018-05-31T11:29:02.607Z,23.56
2018-05-31T11:32:05.933Z,23.77
2018-05-31T11:35:09.276Z,23.63
2018-05-31T11:38:12.624Z,23.76
2018-05-31T11:41:16.050Z,23.84
2018-05-31T11:44:19.381Z,23.82
2018-05-31T11:47:22.776Z,23.64
2018-05-31T11:50:26.156Z,23.74
2018-05-31T11:53:29.543Z,23.79
2018-05-31T11:56:32.875Z,23.76
2018-05-31T11:59:36.214Z,23.64
2018-05-31T12:02:39.553Z,23.81
2018-05-31T12:05:42.965Z,24.05
2018-05-31T12:08:46.297Z,23.89
2018-05-31T12:11:49.653Z,23.97
2018-05-31T12:14:52.998Z,24.04
2018-05-31T12:17:56.371Z,24.04
2018-05-31T12:21:00.462Z,23.96
2018-05-31T12:24:03.802Z,24.01
2018-05-31T12:27:07.134Z,24.02
2018-05-31T12:30:10.486Z,23.92
2018-05-31T12:33:13.815Z,23.84
2018-05-31T12:36:17.167Z,23.72
2018-05-31T12:39:21.274Z,23.66
2018-05-31T12:42:25.379Z,23.68
2018-05-31T12:45:28.715Z,23.55
2018-05-31T12:48:32.071Z,23.63
2018-05-31T12:51:35.399Z,23.63
2018-05-31T12:54:38.767Z,23.69
2018-05-31T12:57:42.869Z,23.58
2018-05-31T13:00:46.219Z,23.50
2018-05-31T13:03:49.545Z,23.51
2018-05-31T13:06:52.885Z,23.53
2018-05-31T13:09:56.201Z,23.44
2018-05-31T13:12:59.551Z,23.57
2018-05-31T13:16:02.858Z,23.66
2018-05-31T13:19:06.965Z,23.62
2018-05-31T13:22:11.205Z,23.70
2018-05-31T13:25:15.331Z,23.94
2018-05-31T13:28:18.667Z,24.05
2018-05-31T13:31:22.010Z,24.27
2018-05-31T13:34:26.100Z,24.07
2018-05-31T13:37:29.474Z,23.96
2018-05-31T13:40:32.837Z,23.90
2018-05-31T13:43:36.224Z,23.84
2018-05-31T13:46:39.531Z,23.89
2018-05-31T13:49:42.886Z,23.89
2018-05-31T13:52:46.277Z,23.90
2018-05-31T13:55:49.633Z,23.92
2018-05-31T13:58:52.936Z,24.04
2018-05-31T14:01:56.307Z,24.14
2018-05-31T14:04:59.621Z,24.05
2018-05-31T14:08:02.953Z,23.84
2018-05-31T14:11:06.290Z,23.78
2018-05-31T14:14:09.597Z,23.85
2018-05-31T14:17:12.942Z,23.88
2018-05-31T14:20:16.293Z,23.84
2018-05-31T14:23:19.613Z,23.91
2018-05-31T14:26:22.989Z,23.84
2018-05-31T14:29:26.310Z,23.83
2018-05-31T14:32:29.693Z,23.90
2018-05-31T14:35:33.005Z,23.96
2018-05-31T14:38:36.341Z,23.79
2018-05-31T14:41:40.426Z,23.73
2018-05-31T14:44:43.798Z,23.73
2018-05-31T14:47:47.127Z,23.69
2018-05-31T14:50:50.510Z,23.84
2018-05-31T14:53:53.839Z,23.82
2018-05-31T14:56:57.214Z,23.85
2018-05-31T15:00:00.604Z,23.87
2018-05-31T15:03:04.030Z,23.93
2018-05-31T15:06:08.124Z,23.96
2018-05-31T15:09:11.765Z,24.19
2018-05-31T15:12:15.104Z,24.36
2018-05-31T15:15:18.452Z,24.78
2018-05-31T15:18:22.549Z,25.06
2018-05-31T15:21:25.961Z,25.42
2018-05-31T15:24:30.098Z,25.51
2018-05-31T15:27:33.543Z,25.54
2018-05-31T15:30:36.940Z,25.51
2018-05-31T15:33:40.345Z,25.59
2018-05-31T15:36:43.749Z,25.87
2018-05-31T15:39:47.085Z,26.28
2018-05-31T15:42:50.388Z,26.20
2018-05-31T15:45:53.754Z,25.99
2018-05-31T15:48:57.829Z,25.86
2018-05-31T15:52:01.182Z,25.87
2018-05-31T15:55:04.936Z,25.98
2018-05-31T15:58:08.314Z,26.25
2018-05-31T16:01:11.655Z,26.30
2018-05-31T16:04:14.968Z,26.20
2018-05-31T16:07:18.299Z,26.26
2018-05-31T16:10:21.645Z,26.23
2018-05-31T16:13:24.984Z,26.00
2018-05-31T16:16:28.333Z,26.12
2018-05-31T16:19:31.727Z,26.29
2018-05-31T16:22:35.095Z,26.53
2018-05-31T16:25:38.415Z,26.50
2018-05-31T16:28:41.724Z,26.62
2018-05-31T16:31:45.822Z,26.69
2018-05-31T16:34:49.957Z,26.78
2018-05-31T16:37:54.053Z,26.15
2018-05-31T16:40:57.453Z,26.36
2018-05-31T16:44:00.842Z,26.22
2018-05-31T16:47:04.233Z,26.13
2018-05-31T16:50:07.687Z,25.96
2018-05-31T16:53:11.019Z,25.65
2018-05-31T16:56:15.056Z,25.72
2018-05-31T16:59:18.487Z,25.60
2018-05-31T17:02:21.864Z,25.65
2018-05-31T17:05:25.990Z,25.79
2018-05-31T17:08:30.181Z,25.75
2018-05-31T17:11:33.536Z,25.58
2018-05-31T17:14:36.913Z,24.78
2018-05-31T17:17:40.268Z,24.46
2018-05-31T17:20:43.581Z,23.73
2018-05-31T17:23:46.925Z,23.26
2018-05-31T17:26:50.263Z,22.93
2018-05-31T17:29:53.578Z,22.66
2018-05-31T17:32:56.924Z,22.51
2018-05-31T17:36:00.295Z,22.36
2018-05-31T17:39:03.636Z,22.14
2018-05-31T17:42:06.992Z,21.88
2018-05-31T17:45:10.316Z,21.84
2018-05-31T17:48:14.565Z,21.84
2018-05-31T17:51:17.904Z,21.74
2018-05-31T17:54:21.237Z,21.69
2018-05-31T17:57:25.489Z,21.67
2018-05-31T18:00:29.600Z,21.57
2018-05-31T18:03:33.700Z,21.53
2018-05-31T18:06:37.053Z,21.40
2018-05-31T18:09:40.413Z,21.35
2018-05-31T18:12:44.546Z,21.32
2018-05-31T18:15:47.875Z,21.24
2018-05-31T18:18:51.191Z,21.18
2018-05-31T18:21:54.572Z,21.10
2018-05-31T18:24:57.924Z,21.14
2018-05-31T18:28:02.001Z,21.07
2018-05-31T18:31:05.367Z,21.04
2018-05-31T18:34:08.765Z,21.01
2018-05-31T18:37:12.114Z,20.92
2018-05-31T18:40:16.223Z,20.86
2018-05-31T18:43:19.580Z,20.82
2018-05-31T18:46:22.912Z,20.81
2018-05-31T18:49:26.229Z,20.73
2018-05-31T18:52:29.568Z,20.66
2018-05-31T18:55:32.935Z,20.66
2018-05-31T18:58:36.910Z,20.61
2018-05-31T19:01:40.313Z,20.55
2018-05-31T19:04:43.627Z,20.48
2018-05-31T19:07:47.767Z,20.43
2018-05-31T19:10:51.102Z,20.35
2018-05-31T19:13:58.445Z,20.35
2018-05-31T19:17:01.770Z,20.33
2018-05-31T19:20:05.109Z,20.30
2018-05-31T19:23:09.195Z,20.19
2018-05-31T19:26:12.569Z,20.12
2018-05-31T19:29:16.025Z,20.07
2018-05-31T19:32:20.252Z,20.08
2018-05-31T19:35:29.889Z,20.03
2018-05-31T19:38:34.001Z,20.00
2018-05-31T19:41:38.094Z,19.94
2018-05-31T19:44:41.436Z,19.93
2018-05-31T19:47:45.271Z,19.84
2018-05-31T19:50:48.614Z,19.81
2018-05-31T19:53:53.289Z,19.78
2018-05-31T19:56:56.659Z,19.76
2018-05-31T20:00:05.472Z,19.69
2018-05-31T20:03:15.303Z,19.64
2018-05-31T20:06:18.599Z,19.58
2018-05-31T20:09:21.996Z,19.54
2018-05-31T20:12:25.338Z,19.46
2018-05-31T20:15:28.670Z,19.47
2018-05-31T20:18:32.025Z,19.46
2018-05-31T20:21:35.341Z,19.38
2018-05-31T20:24:38.726Z,19.36
2018-05-31T20:27:42.086Z,19.31
2018-05-31T20:30:46.198Z,19.28
2018-05-31T20:33:50.565Z,19.32
2018-05-31T20:36:53.881Z,19.26
2018-05-31T20:39:57.303Z,19.23
2018-05-31T20:43:00.646Z,19.21
2018-05-31T20:46:04.111Z,19.16
2018-05-31T20:49:08.194Z,19.13
2018-05-31T20:52:11.536Z,19.16
2018-05-31T20:55:14.873Z,19.10
2018-05-31T20:58:18.233Z,19.08
2018-05-31T21:01:21.540Z,19.04
2018-05-31T21:04:25.163Z,19.10
2018-05-31T21:07:28.499Z,19.02
2018-05-31T21:10:32.603Z,19.03
2018-05-31T21:13:35.928Z,18.95
2018-05-31T21:16:39.274Z,18.96
2018-05-31T21:19:42.601Z,18.87
2018-05-31T21:22:46.754Z,18.87
2018-05-31T21:25:50.910Z,18.82
2018-05-31T21:28:54.297Z,18.83
2018-05-31T21:31:57.667Z,18.82
2018-05-31T21:35:01.041Z,18.74
2018-05-31T21:38:04.360Z,18.69
2018-05-31T21:41:07.729Z,18.73
2018-05-31T21:44:11.818Z,18.70
2018-05-31T21:47:15.244Z,18.62
2018-05-31T21:50:18.548Z,18.63
2018-05-31T21:53:21.985Z,18.64
2018-05-31T21:56:25.293Z,18.60
2018-05-31T21:59:28.674Z,18.54
2018-05-31T22:02:31.982Z,18.50
2018-05-31T22:05:35.339Z,18.50
2018-05-31T22:08:38.668Z,18.47
2018-05-31T22:11:42.031Z,18.37
2018-05-31T22:14:45.435Z,18.37
2018-05-31T22:17:48.850Z,18.33
2018-05-31T22:20:52.414Z,18.30
2018-05-31T22:23:55.897Z,18.28
2018-05-31T22:26:59.233Z,18.33
2018-05-31T22:30:02.557Z,18.28
2018-05-31T22:33:05.889Z,18.19
2018-05-31T22:36:10.020Z,18.14
2018-05-31T22:39:13.425Z,18.09
2018-05-31T22:42:16.735Z,18.08
2018-05-31T22:45:20.156Z,18.07
2018-05-31T22:48:23.557Z,18.05
2018-05-31T22:51:26.954Z,18.01
2018-05-31T22:54:30.353Z,18.03
2018-05-31T22:57:33.690Z,17.96
2018-05-31T23:00:37.883Z,17.98
2018-05-31T23:03:41.189Z,17.91
2018-05-31T23:06:45.353Z,17.88
2018-05-31T23:09:48.775Z,17.88
2018-05-31T23:12:52.105Z,17.91
2018-05-31T23:15:56.210Z,17.83
2018-05-31T23:18:59.521Z,17.85
2018-05-31T23:22:03.685Z,17.79
2018-05-31T23:25:07.029Z,17.70
2018-05-31T23:28:11.122Z,17.69
2018-05-31T23:31:14.462Z,17.68
2018-05-31T23:34:18.344Z,17.63
2018-05-31T23:37:22.426Z,17.64
2018-05-31T23:40:25.749Z,17.61
2018-05-31T23:43:29.109Z,17.64
2018-05-31T23:46:32.511Z,17.63
2018-05-31T23:49:35.909Z,17.62
2018-05-31T23:52:39.304Z,17.57
2018-05-31T23:55:42.629Z,17.56
2018-05-31T23:58:46.004Z,17.56
